TimeEST,TemperatureF,Dew PointF,Humidity,Sea Level PressureIn,VisibilityMPH,Wind Direction,Wind SpeedMPH,Gust SpeedMPH,PrecipitationIn,Events,Conditions,WindDirDegrees,DateUTC
12:51 AM,23.0,19.0,85,30.54,10.0,Calm,Calm,-,N/A,,Clear,0,2013-12-08 05:51:00
1:51 AM,21.0,18.0,88,30.54,10.0,Calm,Calm,-,N/A,,Clear,0,2013-12-08 06:51:00
2:51 AM,23.0,19.0,85,30.49,10.0,Calm,Calm,-,N/A,,Clear,0,2013-12-08 07:51:00
3:51 AM,24.1,21.0,88,30.49,10.0,Calm,Calm,-,N/A,,Mostly Cloudy,0,2013-12-08 08:51:00
4:51 AM,24.1,21.0,88,30.49,10.0,Calm,Calm,-,N/A,,Overcast,0,2013-12-08 09:51:00
5:38 AM,24.8,21.2,86,30.39,2.5,Calm,Calm,-,0.00,Snow,Light Snow,0,2013-12-08 10:38:00
5:51 AM,25.0,21.9,88,30.48,1.8,Calm,Calm,-,0.01,Snow,Light Snow,0,2013-12-08 10:51:00
5:59 AM,24.8,21.2,86,30.37,3.0,Calm,Calm,-,0.00,Snow,Light Snow,0,2013-12-08 10:59:00
6:17 AM,24.8,21.2,86,30.37,2.0,Calm,Calm,-,0.01,Snow,Light Snow,0,2013-12-08 11:17:00
6:32 AM,24.8,21.2,86,30.37,3.0,Calm,Calm,-,0.02,Snow,Light Snow,0,2013-12-08 11:32:00
6:43 AM,24.8,21.2,86,30.38,2.5,Calm,Calm,-,0.03,Snow,Light Snow,0,2013-12-08 11:43:00
6:51 AM,25.0,21.9,88,30.47,2.5,Calm,Calm,-,0.03,Snow,Light Snow,0,2013-12-08 11:51:00
7:05 AM,24.8,23.0,93,30.38,1.8,Calm,Calm,-,0.01,Snow,Light Snow,0,2013-12-08 12:05:00
7:12 AM,26.6,23.0,86,30.37,1.5,Calm,Calm,-,0.02,Snow,Light Snow,0,2013-12-08 12:12:00
7:21 AM,24.8,23.0,93,30.38,0.8,Calm,Calm,-,0.03,Snow,Light Snow,0,2013-12-08 12:21:00
7:37 AM,24.8,23.0,93,30.37,0.8,Calm,Calm,-,0.08,Snow,Light Snow,0,2013-12-08 12:37:00
7:51 AM,25.0,23.0,92,30.45,0.5,Calm,Calm,-,0.11,Fog-Snow,Snow,0,2013-12-08 12:51:00
8:27 AM,26.6,24.8,93,30.35,0.2,Calm,Calm,-,0.07,Fog-Snow,Heavy Snow,0,2013-12-08 13:27:00
8:34 AM,26.6,24.8,93,30.35,0.2,Calm,Calm,-,0.09,Fog-Snow,Heavy Snow,0,2013-12-08 13:34:00
8:41 AM,26.6,24.8,93,30.35,0.5,Calm,Calm,-,0.11,Fog-Snow,Snow,0,2013-12-08 13:41:00
8:51 AM,26.1,24.1,92,30.45,0.8,Calm,Calm,-,0.13,Snow,Light Snow,0,2013-12-08 13:51:00
9:38 AM,26.6,24.8,93,30.35,0.2,Calm,Calm,-,0.08,Fog-Snow,Heavy Snow,0,2013-12-08 14:38:00
9:51 AM,27.0,26.1,96,30.43,0.5,SSE,3.5,-,0.12,Fog-Snow,Snow,150,2013-12-08 14:51:00
9:58 AM,28.4,24.8,86,30.35,1.2,Calm,Calm,-,0.00,Snow,Light Snow,0,2013-12-08 14:58:00
10:11 AM,26.6,24.8,93,30.36,2.5,Calm,Calm,-,0.01,Snow,Light Snow,0,2013-12-08 15:11:00
10:20 AM,28.4,26.6,93,30.33,1.0,Calm,Calm,-,0.02,Snow,Light Snow,0,2013-12-08 15:20:00
10:35 AM,28.4,24.8,86,30.32,2.0,Calm,Calm,-,0.04,Snow,Light Snow,0,2013-12-08 15:35:00
10:44 AM,28.4,26.6,93,30.33,4.0,Calm,Calm,-,0.05,Snow,Light Snow,0,2013-12-08 15:44:00
10:49 AM,28.4,26.6,93,30.33,6.0,Calm,Calm,-,0.06,Rain,Light Freezing Rain,0,2013-12-08 15:49:00
10:51 AM,28.9,26.1,89,30.41,7.0,South,3.5,-,0.06,Rain,Light Freezing Rain,180,2013-12-08 15:51:00
11:02 AM,28.4,26.6,93,30.30,8.0,SSE,3.5,-,0.02,Rain,Light Freezing Rain,160,2013-12-08 16:02:00
11:15 AM,28.4,26.6,93,30.29,10.0,Calm,Calm,-,0.03,Rain,Light Freezing Rain,0,2013-12-08 16:15:00
11:38 AM,30.2,24.8,80,30.27,9.0,WNW,3.5,-,0.06,Rain,Light Freezing Rain,290,2013-12-08 16:38:00
11:48 AM,28.4,24.8,86,30.28,10.0,Calm,Calm,-,0.07,Rain,Light Freezing Rain,0,2013-12-08 16:48:00
11:51 AM,30.0,26.1,85,30.36,10.0,Calm,Calm,-,0.07,Rain,Light Freezing Rain,0,2013-12-08 16:51:00
12:00 PM,30.2,26.6,86,30.26,8.0,East,3.5,-,0.02,Rain,Light Freezing Rain,80,2013-12-08 17:00:00
12:13 PM,30.2,28.4,93,30.23,10.0,Calm,Calm,-,0.04,Rain,Light Freezing Rain,0,2013-12-08 17:13:00
12:25 PM,30.2,26.6,86,30.22,10.0,Calm,Calm,-,0.04,,Overcast,0,2013-12-08 17:25:00
12:51 PM,32.0,28.0,85,30.28,10.0,Calm,Calm,-,0.04,,Mostly Cloudy,0,2013-12-08 17:51:00
1:51 PM,34.0,27.0,75,30.29,10.0,SSE,6.9,-,0.00,,Overcast,150,2013-12-08 18:51:00
2:51 PM,34.0,28.0,79,30.25,10.0,SE,6.9,-,0.01,,Overcast,140,2013-12-08 19:51:00
3:51 PM,34.0,28.9,82,30.24,10.0,Calm,Calm,-,N/A,,Overcast,0,2013-12-08 20:51:00
4:51 PM,35.1,28.9,78,30.24,10.0,South,8.1,-,N/A,,Overcast,170,2013-12-08 21:51:00
5:51 PM,36.0,30.0,79,30.23,10.0,South,8.1,-,N/A,,Overcast,170,2013-12-08 22:51:00
6:51 PM,35.1,30.0,82,30.23,10.0,South,8.1,-,N/A,,Overcast,180,2013-12-08 23:51:00
7:51 PM,36.0,30.0,79,30.22,10.0,South,5.8,-,N/A,,Overcast,170,2013-12-09 00:51:00
8:51 PM,35.1,30.9,85,30.22,8.0,South,6.9,-,0.00,Rain,Light Rain,170,2013-12-09 01:51:00
9:51 PM,35.1,32.0,89,30.20,10.0,SE,4.6,-,0.00,,Overcast,140,2013-12-09 02:51:00
10:51 PM,36.0,32.0,86,30.19,8.0,SSE,5.8,-,0.05,Rain,Heavy Rain,150,2013-12-09 03:51:00
11:51 PM,36.0,33.1,89,30.17,10.0,SE,4.6,-,0.12,Rain,Light Rain,130,2013-12-09 04:51:00